sensor_id;sensor_type;location;lat;lon;timestamp;temperature;humidity
16578;DHT22;8401;52.528;13.340;2022-10-30T00:00:15;16.30;99.90
16578;DHT22;8401;52.528;13.340;2022-10-30T00:02:41;16.30;99.90
16578;DHT22;8401;52.528;13.340;2022-10-30T00:05:07;16.30;99.90
16578;DHT22;8401;52.528;13.340;2022-10-30T00:07:33;16.30;99.90
16578;DHT22;8401;52.528;13.340;2022-10-30T00:09:59;16.30;99.90
16578;DHT22;8401;52.528;13.340;2022-10-30T00:12:25;16.20;99.90
16578;DHT22;8401;52.528;13.340;2022-10-30T00:14:50;16.20;99.90
16578;DHT22;8401;52.528;13.340;2022-10-30T00:17:16;16.20;99.90
16578;DHT22;8401;52.528;13.340;2022-10-30T00:19:42;16.10;99.90
16578;DHT22;8401;52.528;13.340;2022-10-30T00:22:08;16.10;99.90
16578;DHT22;8401;52.528;13.340;2022-10-30T00:24:34;16.10;99.90
16578;DHT22;8401;52.528;13.340;2022-10-30T00:27:00;16.10;99.90
16578;DHT22;8401;52.528;13.340;2022-10-30T00:29:25;16.10;99.90
16578;DHT22;8401;52.528;13.340;2022-10-30T00:31:51;16.00;99.90
16578;DHT22;8401;52.528;13.340;2022-10-30T00:34:17;16.00;99.90
16578;DHT22;8401;52.528;13.340;2022-10-30T00:36:43;16.00;99.90
16578;DHT22;8401;52.528;13.340;2022-10-30T00:39:09;16.00;99.90
16578;DHT22;8401;52.528;13.340;2022-10-30T00:41:35;16.00;99.90
16578;DHT22;8401;52.528;13.340;2022-10-30T00:44:34;16.00;99.90
16578;DHT22;8401;52.528;13.340;2022-10-30T00:47:02;15.90;99.90
16578;DHT22;8401;52.528;13.340;2022-10-30T00:49:36;15.90;99.90
16578;DHT22;8401;52.528;13.340;2022-10-30T00:52:04;15.90;99.90
16578;DHT22;8401;52.528;13.340;2022-10-30T00:54:33;15.90;99.90
16578;DHT22;8401;52.528;13.340;2022-10-30T00:57:01;16.00;99.90
16578;DHT22;8401;52.528;13.340;2022-10-30T00:59:31;16.00;99.90
16578;DHT22;8401;52.528;13.340;2022-10-30T01:01:58;16.00;99.90
16578;DHT22;8401;52.528;13.340;2022-10-30T01:04:25;15.90;99.90
16578;DHT22;8401;52.528;13.340;2022-10-30T01:06:52;15.90;99.90
16578;DHT22;8401;52.528;13.340;2022-10-30T01:09:18;15.90;99.90
16578;DHT22;8401;52.528;13.340;2022-10-30T01:11:44;15.90;99.90
16578;DHT22;8401;52.528;13.340;2022-10-30T01:14:12;15.80;99.90
16578;DHT22;8401;52.528;13.340;2022-10-30T01:19:33;15.80;99.90
16578;DHT22;8401;52.528;13.340;2022-10-30T01:27:48;15.60;99.90
16578;DHT22;8401;52.528;13.340;2022-10-30T01:30:35;15.60;99.90
16578;DHT22;8401;52.528;13.340;2022-10-30T01:36:51;15.70;99.90
16578;DHT22;8401;52.528;13.340;2022-10-30T01:39:25;15.70;99.90
16578;DHT22;8401;52.528;13.340;2022-10-30T01:41:51;15.70;99.90
16578;DHT22;8401;52.528;13.340;2022-10-30T01:44:29;15.50;99.90
16578;DHT22;8401;52.528;13.340;2022-10-30T01:49:48;15.50;99.90
16578;DHT22;8401;52.528;13.340;2022-10-30T02:00:09;15.50;99.90
16578;DHT22;8401;52.528;13.340;2022-10-30T02:02:35;15.50;99.90
16578;DHT22;8401;52.528;13.340;2022-10-30T02:05:02;15.40;99.90
16578;DHT22;8401;52.528;13.340;2022-10-30T02:07:28;15.40;99.90
16578;DHT22;8401;52.528;13.340;2022-10-30T02:09:54;15.40;99.90
16578;DHT22;8401;52.528;13.340;2022-10-30T02:12:20;15.40;99.90
16578;DHT22;8401;52.528;13.340;2022-10-30T02:14:50;15.30;99.90
16578;DHT22;8401;52.528;13.340;2022-10-30T02:17:17;15.20;99.90
16578;DHT22;8401;52.528;13.340;2022-10-30T02:19:43;15.30;99.90
16578;DHT22;8401;52.528;13.340;2022-10-30T02:22:09;15.30;99.90
16578;DHT22;8401;52.528;13.340;2022-10-30T02:24:35;15.20;99.90
16578;DHT22;8401;52.528;13.340;2022-10-30T02:27:00;15.10;99.90
16578;DHT22;8401;52.528;13.340;2022-10-30T02:29:26;15.10;99.90
16578;DHT22;8401;52.528;13.340;2022-10-30T02:31:51;15.20;99.90
16578;DHT22;8401;52.528;13.340;2022-10-30T02:34:17;15.20;99.90
16578;DHT22;8401;52.528;13.340;2022-10-30T02:36:43;15.20;99.90
16578;DHT22;8401;52.528;13.340;2022-10-30T02:39:08;15.20;99.90
16578;DHT22;8401;52.528;13.340;2022-10-30T02:41:34;15.20;99.90
16578;DHT22;8401;52.528;13.340;2022-10-30T02:43:59;15.10;99.90
16578;DHT22;8401;52.528;13.340;2022-10-30T02:46:26;15.10;99.90
16578;DHT22;8401;52.528;13.340;2022-10-30T02:48:51;15.10;99.90
16578;DHT22;8401;52.528;13.340;2022-10-30T02:51:17;15.10;99.90
16578;DHT22;8401;52.528;13.340;2022-10-30T02:53:44;15.00;99.90
16578;DHT22;8401;52.528;13.340;2022-10-30T02:56:11;14.90;99.90
16578;DHT22;8401;52.528;13.340;2022-10-30T02:58:37;14.90;99.90
16578;DHT22;8401;52.528;13.340;2022-10-30T03:03:31;14.80;99.90
16578;DHT22;8401;52.528;13.340;2022-10-30T03:06:00;14.80;99.90
16578;DHT22;8401;52.528;13.340;2022-10-30T03:08:26;14.80;99.90
16578;DHT22;8401;52.528;13.340;2022-10-30T03:10:51;14.60;99.90
16578;DHT22;8401;52.528;13.340;2022-10-30T03:13:17;14.60;99.90
16578;DHT22;8401;52.528;13.340;2022-10-30T03:15:42;14.80;99.90
16578;DHT22;8401;52.528;13.340;2022-10-30T03:18:08;14.90;99.90
16578;DHT22;8401;52.528;13.340;2022-10-30T03:20:33;14.90;99.90
16578;DHT22;8401;52.528;13.340;2022-10-30T03:22:59;15.00;99.90
16578;DHT22;8401;52.528;13.340;2022-10-30T03:25:25;15.10;99.90
16578;DHT22;8401;52.528;13.340;2022-10-30T03:27:51;15.00;99.90
16578;DHT22;8401;52.528;13.340;2022-10-30T03:30:17;15.10;99.90
16578;DHT22;8401;52.528;13.340;2022-10-30T03:32:42;15.10;99.90
16578;DHT22;8401;52.528;13.340;2022-10-30T03:35:08;15.10;99.90
16578;DHT22;8401;52.528;13.340;2022-10-30T03:37:33;15.10;99.90
16578;DHT22;8401;52.528;13.340;2022-10-30T03:39:59;15.20;99.90
16578;DHT22;8401;52.528;13.340;2022-10-30T03:42:25;15.10;99.90
16578;DHT22;8401;52.528;13.340;2022-10-30T03:44:50;15.10;99.90
16578;DHT22;8401;52.528;13.340;2022-10-30T03:47:16;15.20;99.90
16578;DHT22;8401;52.528;13.340;2022-10-30T03:49:41;15.20;99.90
16578;DHT22;8401;52.528;13.340;2022-10-30T03:52:07;15.10;99.90
16578;DHT22;8401;52.528;13.340;2022-10-30T03:54:32;15.10;99.90
16578;DHT22;8401;52.528;13.340;2022-10-30T03:56:58;15.10;99.90
16578;DHT22;8401;52.528;13.340;2022-10-30T03:59:23;15.10;99.90
16578;DHT22;8401;52.528;13.340;2022-10-30T04:01:49;15.10;99.90
16578;DHT22;8401;52.528;13.340;2022-10-30T04:04:14;15.00;99.90
16578;DHT22;8401;52.528;13.340;2022-10-30T04:06:40;15.10;99.90
16578;DHT22;8401;52.528;13.340;2022-10-30T04:09:05;15.10;99.90
16578;DHT22;8401;52.528;13.340;2022-10-30T04:11:31;15.20;99.90
16578;DHT22;8401;52.528;13.340;2022-10-30T04:13:57;15.10;99.90
16578;DHT22;8401;52.528;13.340;2022-10-30T04:16:22;15.00;99.90
16578;DHT22;8401;52.528;13.340;2022-10-30T04:18:48;15.00;99.90
16578;DHT22;8401;52.528;13.340;2022-10-30T04:21:13;15.10;99.90
16578;DHT22;8401;52.528;13.340;2022-10-30T04:23:39;15.00;99.90
16578;DHT22;8401;52.528;13.340;2022-10-30T04:26:04;14.90;99.90
16578;DHT22;8401;52.528;13.340;2022-10-30T04:28:30;15.00;99.90
16578;DHT22;8401;52.528;13.340;2022-10-30T04:30:55;15.10;99.90
16578;DHT22;8401;52.528;13.340;2022-10-30T04:33:21;15.30;99.90
16578;DHT22;8401;52.528;13.340;2022-10-30T04:35:47;15.10;99.90
16578;DHT22;8401;52.528;13.340;2022-10-30T04:38:13;14.90;99.90
16578;DHT22;8401;52.528;13.340;2022-10-30T04:40:40;14.80;99.90
16578;DHT22;8401;52.528;13.340;2022-10-30T04:43:07;14.80;99.90
16578;DHT22;8401;52.528;13.340;2022-10-30T04:45:34;14.80;99.90
16578;DHT22;8401;52.528;13.340;2022-10-30T04:48:02;14.80;99.90
16578;DHT22;8401;52.528;13.340;2022-10-30T04:50:28;14.80;99.90
16578;DHT22;8401;52.528;13.340;2022-10-30T04:53:02;15.10;99.90
16578;DHT22;8401;52.528;13.340;2022-10-30T04:55:28;15.00;99.90
16578;DHT22;8401;52.528;13.340;2022-10-30T04:57:55;14.90;99.90
16578;DHT22;8401;52.528;13.340;2022-10-30T05:00:21;14.90;99.90
16578;DHT22;8401;52.528;13.340;2022-10-30T05:02:47;15.00;99.90
16578;DHT22;8401;52.528;13.340;2022-10-30T05:05:13;14.90;99.90
16578;DHT22;8401;52.528;13.340;2022-10-30T05:07:38;14.90;99.90
16578;DHT22;8401;52.528;13.340;2022-10-30T05:10:04;14.80;99.90
16578;DHT22;8401;52.528;13.340;2022-10-30T05:12:29;15.00;99.90
16578;DHT22;8401;52.528;13.340;2022-10-30T05:14:55;14.90;99.90
16578;DHT22;8401;52.528;13.340;2022-10-30T05:17:21;14.90;99.90
16578;DHT22;8401;52.528;13.340;2022-10-30T05:19:46;14.90;99.90
16578;DHT22;8401;52.528;13.340;2022-10-30T05:22:12;15.10;99.90
16578;DHT22;8401;52.528;13.340;2022-10-30T05:24:38;15.10;99.90
16578;DHT22;8401;52.528;13.340;2022-10-30T05:27:03;15.20;99.90
16578;DHT22;8401;52.528;13.340;2022-10-30T05:29:29;15.30;99.90
16578;DHT22;8401;52.528;13.340;2022-10-30T05:31:54;15.30;99.90
16578;DHT22;8401;52.528;13.340;2022-10-30T05:34:20;15.30;99.90
16578;DHT22;8401;52.528;13.340;2022-10-30T05:36:45;15.20;99.90
16578;DHT22;8401;52.528;13.340;2022-10-30T05:39:11;15.20;99.90
16578;DHT22;8401;52.528;13.340;2022-10-30T05:41:36;15.20;99.90
16578;DHT22;8401;52.528;13.340;2022-10-30T05:44:02;15.20;99.90
16578;DHT22;8401;52.528;13.340;2022-10-30T05:46:28;15.10;99.90
16578;DHT22;8401;52.528;13.340;2022-10-30T05:48:53;15.00;99.90
16578;DHT22;8401;52.528;13.340;2022-10-30T05:51:19;15.10;99.90
16578;DHT22;8401;52.528;13.340;2022-10-30T05:53:47;15.20;99.90
16578;DHT22;8401;52.528;13.340;2022-10-30T05:56:13;15.20;99.90
16578;DHT22;8401;52.528;13.340;2022-10-30T05:58:38;15.20;99.90
16578;DHT22;8401;52.528;13.340;2022-10-30T06:01:05;15.10;99.90
16578;DHT22;8401;52.528;13.340;2022-10-30T06:03:31;15.10;99.90
16578;DHT22;8401;52.528;13.340;2022-10-30T06:05:57;15.20;99.90
16578;DHT22;8401;52.528;13.340;2022-10-30T06:08:22;15.30;99.90
16578;DHT22;8401;52.528;13.340;2022-10-30T06:10:48;15.30;99.90
16578;DHT22;8401;52.528;13.340;2022-10-30T06:13:14;15.30;99.90
16578;DHT22;8401;52.528;13.340;2022-10-30T06:15:39;15.40;99.90
16578;DHT22;8401;52.528;13.340;2022-10-30T06:18:05;15.40;99.90
16578;DHT22;8401;52.528;13.340;2022-10-30T06:20:30;15.20;99.90
16578;DHT22;8401;52.528;13.340;2022-10-30T06:22:58;15.40;99.90
16578;DHT22;8401;52.528;13.340;2022-10-30T06:25:27;15.40;99.90
16578;DHT22;8401;52.528;13.340;2022-10-30T06:27:52;15.50;99.90
16578;DHT22;8401;52.528;13.340;2022-10-30T06:30:19;15.60;99.90
16578;DHT22;8401;52.528;13.340;2022-10-30T06:32:45;15.50;99.90
16578;DHT22;8401;52.528;13.340;2022-10-30T06:35:10;15.50;99.90
16578;DHT22;8401;52.528;13.340;2022-10-30T06:37:36;15.50;99.90
16578;DHT22;8401;52.528;13.340;2022-10-30T06:40:05;15.50;99.90
16578;DHT22;8401;52.528;13.340;2022-10-30T06:42:31;15.50;99.90
16578;DHT22;8401;52.528;13.340;2022-10-30T06:44:57;15.40;99.90
16578;DHT22;8401;52.528;13.340;2022-10-30T06:47:22;15.30;99.90
16578;DHT22;8401;52.528;13.340;2022-10-30T06:49:48;15.40;99.90
16578;DHT22;8401;52.528;13.340;2022-10-30T06:52:13;15.50;99.90
16578;DHT22;8401;52.528;13.340;2022-10-30T06:54:39;15.60;99.90
16578;DHT22;8401;52.528;13.340;2022-10-30T06:57:04;15.70;99.90
16578;DHT22;8401;52.528;13.340;2022-10-30T06:59:30;15.70;99.90
16578;DHT22;8401;52.528;13.340;2022-10-30T07:01:55;15.70;99.90
16578;DHT22;8401;52.528;13.340;2022-10-30T07:04:21;15.70;99.90
16578;DHT22;8401;52.528;13.340;2022-10-30T07:06:47;15.80;99.90
16578;DHT22;8401;52.528;13.340;2022-10-30T07:09:12;15.80;99.90
16578;DHT22;8401;52.528;13.340;2022-10-30T07:11:38;15.70;99.90
16578;DHT22;8401;52.528;13.340;2022-10-30T07:14:06;15.60;99.90
16578;DHT22;8401;52.528;13.340;2022-10-30T07:16:32;15.40;99.90
16578;DHT22;8401;52.528;13.340;2022-10-30T07:18:57;15.50;99.90
16578;DHT22;8401;52.528;13.340;2022-10-30T07:21:25;15.50;99.90
16578;DHT22;8401;52.528;13.340;2022-10-30T07:23:50;15.40;99.90
16578;DHT22;8401;52.528;13.340;2022-10-30T07:26:16;15.50;99.90
16578;DHT22;8401;52.528;13.340;2022-10-30T07:28:42;15.70;99.90
16578;DHT22;8401;52.528;13.340;2022-10-30T07:31:07;15.90;99.90
16578;DHT22;8401;52.528;13.340;2022-10-30T07:33:33;15.70;99.90
16578;DHT22;8401;52.528;13.340;2022-10-30T07:36:02;15.90;99.90
16578;DHT22;8401;52.528;13.340;2022-10-30T07:38:27;16.10;99.90
16578;DHT22;8401;52.528;13.340;2022-10-30T07:40:53;16.20;99.90
16578;DHT22;8401;52.528;13.340;2022-10-30T07:43:19;16.30;99.90
16578;DHT22;8401;52.528;13.340;2022-10-30T07:45:45;16.20;99.90
16578;DHT22;8401;52.528;13.340;2022-10-30T07:48:11;16.20;99.90
16578;DHT22;8401;52.528;13.340;2022-10-30T07:50:36;16.10;99.90
16578;DHT22;8401;52.528;13.340;2022-10-30T07:53:02;16.10;99.90
16578;DHT22;8401;52.528;13.340;2022-10-30T07:55:27;16.20;99.90
16578;DHT22;8401;52.528;13.340;2022-10-30T07:57:53;16.20;99.90
16578;DHT22;8401;52.528;13.340;2022-10-30T08:00:19;16.10;99.90
16578;DHT22;8401;52.528;13.340;2022-10-30T08:02:48;16.20;99.90
16578;DHT22;8401;52.528;13.340;2022-10-30T08:05:15;16.30;99.90
16578;DHT22;8401;52.528;13.340;2022-10-30T08:07:41;16.30;99.90
16578;DHT22;8401;52.528;13.340;2022-10-30T08:10:07;16.60;99.90
16578;DHT22;8401;52.528;13.340;2022-10-30T08:12:33;16.70;99.90
16578;DHT22;8401;52.528;13.340;2022-10-30T08:14:59;16.80;99.90
16578;DHT22;8401;52.528;13.340;2022-10-30T08:17:28;16.70;99.90
16578;DHT22;8401;52.528;13.340;2022-10-30T08:19:54;16.90;99.90
16578;DHT22;8401;52.528;13.340;2022-10-30T08:22:21;16.80;99.90
16578;DHT22;8401;52.528;13.340;2022-10-30T08:24:47;16.80;99.90
16578;DHT22;8401;52.528;13.340;2022-10-30T08:27:12;16.80;99.90
16578;DHT22;8401;52.528;13.340;2022-10-30T08:29:38;16.90;99.90
16578;DHT22;8401;52.528;13.340;2022-10-30T08:32:04;16.90;99.90
16578;DHT22;8401;52.528;13.340;2022-10-30T08:34:30;16.90;99.90
16578;DHT22;8401;52.528;13.340;2022-10-30T08:36:56;16.90;99.90
16578;DHT22;8401;52.528;13.340;2022-10-30T08:39:22;17.00;99.90
16578;DHT22;8401;52.528;13.340;2022-10-30T08:41:47;16.90;99.90
16578;DHT22;8401;52.528;13.340;2022-10-30T08:44:13;16.90;99.90
16578;DHT22;8401;52.528;13.340;2022-10-30T08:46:39;16.90;99.90
16578;DHT22;8401;52.528;13.340;2022-10-30T08:49:04;16.90;99.90
16578;DHT22;8401;52.528;13.340;2022-10-30T08:51:34;17.20;99.90
16578;DHT22;8401;52.528;13.340;2022-10-30T08:54:00;17.30;99.90
16578;DHT22;8401;52.528;13.340;2022-10-30T08:56:26;17.20;99.90
16578;DHT22;8401;52.528;13.340;2022-10-30T08:58:52;17.60;99.90
16578;DHT22;8401;52.528;13.340;2022-10-30T09:01:17;17.70;99.90
16578;DHT22;8401;52.528;13.340;2022-10-30T09:03:46;17.70;99.90
16578;DHT22;8401;52.528;13.340;2022-10-30T09:06:12;17.80;99.90
16578;DHT22;8401;52.528;13.340;2022-10-30T09:08:38;17.80;99.90
16578;DHT22;8401;52.528;13.340;2022-10-30T09:11:03;17.80;99.90
16578;DHT22;8401;52.528;13.340;2022-10-30T09:13:29;17.90;99.90
16578;DHT22;8401;52.528;13.340;2022-10-30T09:16:02;17.90;99.90
16578;DHT22;8401;52.528;13.340;2022-10-30T09:18:27;17.90;99.90
16578;DHT22;8401;52.528;13.340;2022-10-30T09:20:53;17.80;99.90
16578;DHT22;8401;52.528;13.340;2022-10-30T09:23:19;17.90;99.90
16578;DHT22;8401;52.528;13.340;2022-10-30T09:25:44;18.00;99.90
16578;DHT22;8401;52.528;13.340;2022-10-30T09:28:10;18.70;99.90
16578;DHT22;8401;52.528;13.340;2022-10-30T09:30:35;19.50;99.90
16578;DHT22;8401;52.528;13.340;2022-10-30T09:33:01;21.20;99.90
16578;DHT22;8401;52.528;13.340;2022-10-30T09:35:28;22.50;99.90
16578;DHT22;8401;52.528;13.340;2022-10-30T09:37:54;24.10;99.90
16578;DHT22;8401;52.528;13.340;2022-10-30T09:46:28;25.80;99.90
16578;DHT22;8401;52.528;13.340;2022-10-30T09:49:13;25.50;99.90
16578;DHT22;8401;52.528;13.340;2022-10-30T09:51:54;26.60;99.90
16578;DHT22;8401;52.528;13.340;2022-10-30T10:05:04;27.70;99.90
16578;DHT22;8401;52.528;13.340;2022-10-30T10:07:41;26.90;99.90
16578;DHT22;8401;52.528;13.340;2022-10-30T10:10:15;27.40;99.90
16578;DHT22;8401;52.528;13.340;2022-10-30T10:12:50;26.60;99.90
16578;DHT22;8401;52.528;13.340;2022-10-30T10:15:32;26.60;99.90
16578;DHT22;8401;52.528;13.340;2022-10-30T10:18:00;25.90;99.90
16578;DHT22;8401;52.528;13.340;2022-10-30T10:20:35;26.10;99.90
16578;DHT22;8401;52.528;13.340;2022-10-30T10:23:08;26.30;99.90
16578;DHT22;8401;52.528;13.340;2022-10-30T10:25:40;26.40;99.90
16578;DHT22;8401;52.528;13.340;2022-10-30T10:28:35;26.30;99.90
16578;DHT22;8401;52.528;13.340;2022-10-30T10:33:45;26.00;99.90
16578;DHT22;8401;52.528;13.340;2022-10-30T10:41:50;22.00;99.90
16578;DHT22;8401;52.528;13.340;2022-10-30T10:47:22;21.70;99.90
16578;DHT22;8401;52.528;13.340;2022-10-30T10:52:48;21.70;99.90
16578;DHT22;8401;52.528;13.340;2022-10-30T10:55:18;21.30;99.90
16578;DHT22;8401;52.528;13.340;2022-10-30T10:57:45;21.40;99.90
16578;DHT22;8401;52.528;13.340;2022-10-30T11:00:18;21.30;99.90
16578;DHT22;8401;52.528;13.340;2022-10-30T11:05:56;21.50;99.90
16578;DHT22;8401;52.528;13.340;2022-10-30T11:08:28;21.40;99.90
16578;DHT22;8401;52.528;13.340;2022-10-30T11:11:01;21.30;99.90
16578;DHT22;8401;52.528;13.340;2022-10-30T11:13:43;21.20;99.90
16578;DHT22;8401;52.528;13.340;2022-10-30T11:19:02;21.30;99.90
16578;DHT22;8401;52.528;13.340;2022-10-30T11:21:33;21.40;99.90
16578;DHT22;8401;52.528;13.340;2022-10-30T11:23:59;21.50;99.90
16578;DHT22;8401;52.528;13.340;2022-10-30T11:26:28;21.50;99.90
16578;DHT22;8401;52.528;13.340;2022-10-30T11:31:25;21.40;99.90
16578;DHT22;8401;52.528;13.340;2022-10-30T11:36:53;21.30;99.90
16578;DHT22;8401;52.528;13.340;2022-10-30T11:39:30;21.30;99.90
16578;DHT22;8401;52.528;13.340;2022-10-30T11:42:05;21.40;99.90
16578;DHT22;8401;52.528;13.340;2022-10-30T11:44:43;21.30;99.90
16578;DHT22;8401;52.528;13.340;2022-10-30T11:47:10;21.30;99.90
16578;DHT22;8401;52.528;13.340;2022-10-30T11:49:45;21.40;99.90
16578;DHT22;8401;52.528;13.340;2022-10-30T11:52:15;21.40;99.90
16578;DHT22;8401;52.528;13.340;2022-10-30T11:54:45;21.50;99.90
16578;DHT22;8401;52.528;13.340;2022-10-30T11:57:34;21.40;99.90
16578;DHT22;8401;52.528;13.340;2022-10-30T12:00:03;21.50;99.90
16578;DHT22;8401;52.528;13.340;2022-10-30T12:02:40;21.50;99.90
16578;DHT22;8401;52.528;13.340;2022-10-30T12:08:10;21.30;99.90
16578;DHT22;8401;52.528;13.340;2022-10-30T12:10:43;21.40;99.90
16578;DHT22;8401;52.528;13.340;2022-10-30T12:13:17;21.40;99.90
16578;DHT22;8401;52.528;13.340;2022-10-30T12:15:46;21.40;99.90
16578;DHT22;8401;52.528;13.340;2022-10-30T12:18:20;21.40;99.90
16578;DHT22;8401;52.528;13.340;2022-10-30T12:20:51;21.40;99.90
16578;DHT22;8401;52.528;13.340;2022-10-30T12:23:20;21.30;99.90
16578;DHT22;8401;52.528;13.340;2022-10-30T12:25:51;21.40;99.90
16578;DHT22;8401;52.528;13.340;2022-10-30T12:28:37;21.60;99.90
16578;DHT22;8401;52.528;13.340;2022-10-30T12:31:17;21.70;99.90
16578;DHT22;8401;52.528;13.340;2022-10-30T12:36:21;21.50;99.90
16578;DHT22;8401;52.528;13.340;2022-10-30T12:39:03;21.40;99.90
16578;DHT22;8401;52.528;13.340;2022-10-30T12:41:50;21.40;99.90
16578;DHT22;8401;52.528;13.340;2022-10-30T12:44:26;21.30;99.90
16578;DHT22;8401;52.528;13.340;2022-10-30T12:47:05;21.30;99.90
16578;DHT22;8401;52.528;13.340;2022-10-30T12:49:53;21.40;99.90
16578;DHT22;8401;52.528;13.340;2022-10-30T12:52:40;21.50;99.90
16578;DHT22;8401;52.528;13.340;2022-10-30T12:58:08;21.50;99.90
16578;DHT22;8401;52.528;13.340;2022-10-30T13:01:00;21.70;99.90
16578;DHT22;8401;52.528;13.340;2022-10-30T13:03:40;21.70;99.90
16578;DHT22;8401;52.528;13.340;2022-10-30T13:06:14;21.70;99.90
16578;DHT22;8401;52.528;13.340;2022-10-30T13:09:23;21.70;99.90
16578;DHT22;8401;52.528;13.340;2022-10-30T13:11:55;21.70;99.90
16578;DHT22;8401;52.528;13.340;2022-10-30T13:14:41;21.80;99.90
16578;DHT22;8401;52.528;13.340;2022-10-30T13:17:11;21.80;99.90
16578;DHT22;8401;52.528;13.340;2022-10-30T13:19:43;21.80;99.90
16578;DHT22;8401;52.528;13.340;2022-10-30T13:25:09;21.80;99.90
16578;DHT22;8401;52.528;13.340;2022-10-30T13:28:02;21.90;99.90
16578;DHT22;8401;52.528;13.340;2022-10-30T13:30:34;21.90;99.90
16578;DHT22;8401;52.528;13.340;2022-10-30T13:33:23;21.80;99.90
16578;DHT22;8401;52.528;13.340;2022-10-30T13:38:53;21.70;99.90
16578;DHT22;8401;52.528;13.340;2022-10-30T13:44:46;21.70;99.90
16578;DHT22;8401;52.528;13.340;2022-10-30T13:53:29;21.60;99.90
16578;DHT22;8401;52.528;13.340;2022-10-30T13:55:57;21.50;99.90
16578;DHT22;8401;52.528;13.340;2022-10-30T13:58:33;21.40;99.90
16578;DHT22;8401;52.528;13.340;2022-10-30T14:04:03;21.30;99.90
16578;DHT22;8401;52.528;13.340;2022-10-30T14:06:48;21.30;99.90
16578;DHT22;8401;52.528;13.340;2022-10-30T14:09:41;21.40;99.90
16578;DHT22;8401;52.528;13.340;2022-10-30T14:15:33;21.50;99.90
16578;DHT22;8401;52.528;13.340;2022-10-30T14:20:38;21.50;99.90
16578;DHT22;8401;52.528;13.340;2022-10-30T14:23:23;21.40;99.90
16578;DHT22;8401;52.528;13.340;2022-10-30T14:28:31;21.40;99.90
16578;DHT22;8401;52.528;13.340;2022-10-30T14:31:18;21.50;99.90
16578;DHT22;8401;52.528;13.340;2022-10-30T14:33:47;21.40;99.90
16578;DHT22;8401;52.528;13.340;2022-10-30T14:50:31;21.30;99.90
16578;DHT22;8401;52.528;13.340;2022-10-30T14:58:32;21.10;99.90
16578;DHT22;8401;52.528;13.340;2022-10-30T15:01:24;21.00;99.90
16578;DHT22;8401;52.528;13.340;2022-10-30T15:04:18;20.90;99.90
16578;DHT22;8401;52.528;13.340;2022-10-30T15:10:01;20.70;99.90
16578;DHT22;8401;52.528;13.340;2022-10-30T15:15:23;20.50;99.90
16578;DHT22;8401;52.528;13.340;2022-10-30T15:17:54;20.40;99.90
16578;DHT22;8401;52.528;13.340;2022-10-30T15:20:27;20.30;99.90
16578;DHT22;8401;52.528;13.340;2022-10-30T15:23:33;20.10;99.90
16578;DHT22;8401;52.528;13.340;2022-10-30T15:26:01;20.00;99.90
16578;DHT22;8401;52.528;13.340;2022-10-30T15:28:30;19.80;99.90
16578;DHT22;8401;52.528;13.340;2022-10-30T15:31:06;19.80;99.90
16578;DHT22;8401;52.528;13.340;2022-10-30T15:33:39;19.60;99.90
16578;DHT22;8401;52.528;13.340;2022-10-30T15:36:13;19.50;99.90
16578;DHT22;8401;52.528;13.340;2022-10-30T15:38:42;19.40;99.90
16578;DHT22;8401;52.528;13.340;2022-10-30T15:41:08;19.30;99.90
16578;DHT22;8401;52.528;13.340;2022-10-30T15:43:36;19.10;99.90
16578;DHT22;8401;52.528;13.340;2022-10-30T15:46:13;19.00;99.90
16578;DHT22;8401;52.528;13.340;2022-10-30T15:48:40;18.90;99.90
16578;DHT22;8401;52.528;13.340;2022-10-30T15:51:17;18.80;99.90
16578;DHT22;8401;52.528;13.340;2022-10-30T15:53:48;18.80;99.90
16578;DHT22;8401;52.528;13.340;2022-10-30T15:58:58;18.60;99.90
16578;DHT22;8401;52.528;13.340;2022-10-30T16:01:29;18.50;99.90
16578;DHT22;8401;52.528;13.340;2022-10-30T16:03:55;18.40;99.90
16578;DHT22;8401;52.528;13.340;2022-10-30T16:06:25;18.40;99.90
16578;DHT22;8401;52.528;13.340;2022-10-30T16:08:51;18.30;99.90
16578;DHT22;8401;52.528;13.340;2022-10-30T16:11:17;18.20;99.90
16578;DHT22;8401;52.528;13.340;2022-10-30T16:13:43;18.10;99.90
16578;DHT22;8401;52.528;13.340;2022-10-30T16:16:23;18.10;99.90
16578;DHT22;8401;52.528;13.340;2022-10-30T16:18:51;18.00;99.90
16578;DHT22;8401;52.528;13.340;2022-10-30T16:21:20;17.90;99.90
16578;DHT22;8401;52.528;13.340;2022-10-30T16:23:52;17.80;99.90
16578;DHT22;8401;52.528;13.340;2022-10-30T16:26:23;17.70;99.90
16578;DHT22;8401;52.528;13.340;2022-10-30T16:28:48;17.70;99.90
16578;DHT22;8401;52.528;13.340;2022-10-30T16:31:14;17.70;99.90
16578;DHT22;8401;52.528;13.340;2022-10-30T16:33:44;17.60;99.90
16578;DHT22;8401;52.528;13.340;2022-10-30T16:36:13;17.60;99.90
16578;DHT22;8401;52.528;13.340;2022-10-30T16:38:42;17.60;99.90
16578;DHT22;8401;52.528;13.340;2022-10-30T16:41:10;17.50;99.90
16578;DHT22;8401;52.528;13.340;2022-10-30T16:43:39;17.50;99.90
16578;DHT22;8401;52.528;13.340;2022-10-30T16:48:56;17.40;99.90
16578;DHT22;8401;52.528;13.340;2022-10-30T16:51:23;17.40;99.90
16578;DHT22;8401;52.528;13.340;2022-10-30T16:53:50;17.40;99.90
16578;DHT22;8401;52.528;13.340;2022-10-30T16:58:48;17.30;99.90
16578;DHT22;8401;52.528;13.340;2022-10-30T17:01:14;17.20;99.90
16578;DHT22;8401;52.528;13.340;2022-10-30T17:03:40;17.20;99.90
16578;DHT22;8401;52.528;13.340;2022-10-30T17:08:56;17.10;99.90
16578;DHT22;8401;52.528;13.340;2022-10-30T17:11:37;17.10;99.90
16578;DHT22;8401;52.528;13.340;2022-10-30T17:14:14;17.00;99.90
16578;DHT22;8401;52.528;13.340;2022-10-30T17:16:40;17.00;99.90
16578;DHT22;8401;52.528;13.340;2022-10-30T17:19:36;17.00;99.90
16578;DHT22;8401;52.528;13.340;2022-10-30T17:22:08;16.90;99.90
16578;DHT22;8401;52.528;13.340;2022-10-30T17:24:35;16.90;99.90
16578;DHT22;8401;52.528;13.340;2022-10-30T17:27:04;16.90;99.90
16578;DHT22;8401;52.528;13.340;2022-10-30T17:32:14;16.80;99.90
16578;DHT22;8401;52.528;13.340;2022-10-30T17:34:42;16.80;99.90
16578;DHT22;8401;52.528;13.340;2022-10-30T17:37:07;16.70;99.90
16578;DHT22;8401;52.528;13.340;2022-10-30T17:39:33;16.70;99.90
16578;DHT22;8401;52.528;13.340;2022-10-30T17:41:59;16.70;99.90
16578;DHT22;8401;52.528;13.340;2022-10-30T17:44:25;16.60;99.90
16578;DHT22;8401;52.528;13.340;2022-10-30T17:46:51;16.60;99.90
16578;DHT22;8401;52.528;13.340;2022-10-30T17:49:30;16.60;99.90
16578;DHT22;8401;52.528;13.340;2022-10-30T17:51:57;16.50;99.90
16578;DHT22;8401;52.528;13.340;2022-10-30T17:54:27;16.50;99.90
16578;DHT22;8401;52.528;13.340;2022-10-30T17:56:53;16.50;99.90
16578;DHT22;8401;52.528;13.340;2022-10-30T17:59:19;16.50;99.90
16578;DHT22;8401;52.528;13.340;2022-10-30T18:01:44;16.50;99.90
16578;DHT22;8401;52.528;13.340;2022-10-30T18:04:15;16.40;99.90